• Join FlightAware (Why Join?)
  • Login
  • US Flag 
08:58AM EST


 

Airport Tracker/Info


-or-


 

Live Flight TrackerFlight Track Log ✈ UAL4180 ✈ 22-May-2013 ✈ KMCI - KIAH

Flight Track Log - Related Links

Times and Time Zones

All times are in EDT time to prevent confusion due to time zone crossing. See the UAL4180 flight status page for this flight to view local times or setup timezone preferences in your user account.

Time Position Orientation Groundspeed Altitude Reporting Facility
EDT Latitude Longitude Course Direction KTS MPH feet Rate Location/Type
11:24AM 39.2833 -94.7167 199° South 147 169 1,400  Level Kansas City TRACON
11:24AM 39.2833 -94.7667 270° West 165 190 2,700 1,560 Climbing Kansas City TRACON
11:25AM 39.2822 -94.7994 268° West 187 215 3,500 2,160 Climbing Kansas City Center
11:26AM 39.2103 -94.8369 202° Southwest 261 300 6,300 2,580 Climbing Kansas City Center
11:27AM 38.9479 -94.8396 195° South  Level FlightAware Approximate
11:27AM 39.1389 -94.8506 188° South 268 308 8,900  Level Kansas City Center
11:28AM 38.8592 -94.8756 199° South  Level FlightAware Approximate
11:28AM 39.0497 -94.8700 190° South 289 333 10,900  Level Kansas City Center
11:29AM 38.7712 -94.9147 199° South  Level FlightAware Approximate
11:29AM 38.9600 -94.8872 188° South 336 387 12,000  Level Kansas City Center
11:30AM 38.8644 -94.9064 189° South 359 413 13,500 1,740 Climbing Kansas City Center
11:31AM 38.7508 -94.9286 189° South 368 423 15,600 1,740 Climbing Kansas City Center
11:32AM 38.6558 -94.9606 195° South 367 422 17,100 1,500 Climbing Kansas City Center
11:33AM 38.5428 -95.0000 195° South 375 432 18,800 1,500 Climbing Kansas City Center
11:34AM 38.4439 -95.0339 195° South 382 440 20,300 1,500 Climbing Kansas City Center
11:35AM 38.3272 -95.0761 196° South 389 448 21,900 1,440 Climbing Kansas City Center
11:36AM 38.2267 -95.1078 194° South 388 447 23,300 1,440 Climbing Kansas City Center
11:37AM 38.1083 -95.1492 195° South 393 452 24,900 1,440 Climbing Kansas City Center
11:38AM 38.0064 -95.1847 195° South 395 455 26,300 1,260 Climbing Kansas City Center
11:39AM 37.8931 -95.2261 196° South 391 450 27,600 1,200 Climbing Kansas City Center
11:40AM 37.7881 -95.2608 195° South 388 447 28,900 1,200 Climbing Kansas City Center
11:41AM 37.6842 -95.2953 195° South 386 444 30,100 1,080 Climbing Kansas City Center
11:42AM 37.5800 -95.3303 195° South 386 444 31,200 1,080 Climbing Kansas City Center
11:43AM 37.4747 -95.3653 195° South 389 448 32,400 1,020 Climbing Kansas City Center
11:45AM 37.3697 -95.4003 195° South 390 449 33,400 1,020 Climbing Kansas City Center
11:46AM 37.2431 -95.4428 195° South 392 451 34,600 780 Climbing Kansas City Center
11:47AM 37.1369 -95.4783 195° South 393 452 35,100 660 Climbing Kansas City Center
11:48AM 37.0294 -95.5125 194° South 397 457 36,000 420 Climbing Kansas City Center
11:49AM 36.9192 -95.5506 195° South 405 466 36,000  Level Kansas City Center
11:50AM 36.8053 -95.5878 195° South 417 480 36,000  Level Kansas City Center
11:51AM 36.6875 -95.6281 195° South 434 499 36,000  Level Kansas City Center
11:52AM 36.5486 -95.6731 195° South 443 510 36,000  Level Kansas City Center
11:53AM 36.4297 -95.7119 195° South 443 510 36,000  Level Kansas City Center
11:54AM 36.3097 -95.7497 194° South 443 510 36,000  Level Kansas City Center
11:55AM 36.1914 -95.7903 195° South 443 510 36,000  Level Kansas City Center
11:56AM 36.0489 -95.8397 196° South 444 511 36,000  Level Kansas City Center
11:57AM 35.9281 -95.8822 196° South 448 516 36,000  Level Kansas City Center
11:58AM 35.8058 -95.9244 196° South 453 521 36,000  Level Kansas City Center
11:59AM 35.6864 -95.9650 195° South 449 517 36,000  Level Kansas City Center
12:00PM 35.5711 -96.0053 196° South 436 502 36,000  Level Kansas City Center
12:01PM 35.4525 -96.0469 196° South 438 504 36,000  Level Kansas City Center
12:02PM 35.3292 -96.0894 196° South 448 516 36,000  Level Kansas City Center
12:03PM 35.2036 -96.1331 196° South 448 516 36,000  Level Fort Worth Center
12:04PM 35.0831 -96.1753 196° South 454 522 36,000  Level Fort Worth Center
12:05PM 34.9625 -96.2153 195° South 454 522 36,000  Level Fort Worth Center
12:06PM 34.8400 -96.2575 196° South 454 522 36,000  Level Fort Worth Center
12:07PM 34.7192 -96.2994 196° South 454 522 36,000  Level Fort Worth Center
12:08PM 34.6008 -96.3414 196° South 454 522 36,000  Level Fort Worth Center
12:09PM 34.4800 -96.3781 194° South 449 517 36,000  Level Fort Worth Center
12:10PM 34.3553 -96.4225 196° South 456 525 36,000  Level Fort Worth Center
12:11PM 34.2344 -96.4614 195° South 456 525 36,000  Level Fort Worth Center
12:12PM 34.1158 -96.5028 196° South 451 519 36,000  Level Fort Worth Center
12:13PM 33.9992 -96.5417 195° South 446 513 36,000  Level Fort Worth Center
12:14PM 33.8825 -96.5803 195° South 441 507 36,000  Level Fort Worth Center
12:15PM 33.7619 -96.6189 195° South 422 486 36,000  Level Fort Worth Center
12:16PM 33.6453 -96.6600 196° South 422 486 36,000  Level Fort Worth Center
12:17PM 33.5306 -96.6958 195° South 422 486 36,000  Level Fort Worth Center
12:18PM 33.4139 -96.7367 196° South 437 503 36,000  Level Fort Worth Center
12:19PM 33.2953 -96.7747 195° South 443 510 36,000  Level Fort Worth Center
12:20PM 33.1786 -96.8153 196° South 443 510 36,000  Level Fort Worth Center
12:21PM 33.0639 -96.8706 202° Southwest 443 510 36,000  Level Fort Worth Center
12:22PM 32.9681 -96.9281 207° Southwest 436 502 36,000 -300 Level Fort Worth Center
12:23PM 32.8494 -96.9956 206° Southwest 436 502 35,500 -540 Descending Fort Worth Center
12:24PM 32.7514 -97.0578 208° Southwest 436 502 35,000 -180 Descending Fort Worth Center
12:26PM 32.4989 -97.0439 177° South 466 536 35,000  Level Fort Worth Center
12:27PM 32.3608 -96.9756 157° South 477 549 35,000  Level Fort Worth Center
12:28PM 32.2436 -96.9147 156° South 477 549 35,000  Level Fort Worth Center
12:29PM 32.1222 -96.8589 159° South 472 543 35,000  Level Fort Worth Center
12:30PM 31.9972 -96.8597 180° South 453 521 35,000 -420 Level Fort Worth Center
12:31PM 31.8717 -96.8556 178° South 453 521 34,200 -1,140 Descending Fort Worth Center
12:32PM 31.7444 -96.8514 178° South 459 528 32,800 -1,500 Descending Fort Worth Center
12:33PM 31.6381 -96.8350 173° South 463 533 31,500 -1,500 Descending Houston Center
12:34PM 31.5028 -96.8167 173° South 470 541 30,000 -1,260 Descending Houston Center
12:35PM 31.3786 -96.8189 181° South 456 525 28,900 -1,200 Descending Houston Center
12:36PM 31.2569 -96.8292 184° South 437 503 27,600 -1,320 Descending Houston Center
12:37PM 31.1508 -96.8511 190° South 390 449 26,200 -1,500 Descending Houston Center
12:38PM 31.0461 -96.8567 183° South 375 432 24,500 -1,080 Descending Houston Center
12:39PM 30.9608 -96.7817 143° Southeast 406 467 24,000 -300 Descending Houston Center
12:40PM 30.8956 -96.6608 122° Southeast 432 497 24,000  Level Houston Center
12:41PM 30.8164 -96.5206 123° Southeast 439 505 24,000 -360 Level Houston Center
12:42PM 30.7500 -96.3978 122° Southeast 442 509 23,300 -1,500 Descending Houston Center
12:43PM 30.6839 -96.2808 123° Southeast 431 496 20,900 -2,880 Descending Houston Center
12:44PM 30.6239 -96.1678 122° Southeast 411 473 17,300 -3,300 Descending Houston Center
12:45PM 30.5650 -96.0633 123° Southeast 382 440 14,300 -2,700 Descending Houston Center
12:46PM 30.5092 -95.9636 123° Southeast 360 414 11,800 -2,160 Descending Houston Center
12:47PM 30.4806 -95.9131 123° Southeast 327 376 10,800 -1,560 Descending Houston Center
12:47PM 30.4606 -95.8767 123° Southeast 328 377 10,200 -780 Descending Houston Center
12:48PM 30.4086 -95.8561 161° South 311 358 10,000 -600 Descending Houston Center
12:48PM 30.3806 -95.8594 186° South 314 361 9,600 -1,320 Descending Houston Center
12:49PM 30.3317 -95.8650 186° South 299 344 8,800 -1,560 Descending Houston Center
12:49PM 30.2819 -95.8708 186° South 298 343 8,000 -840 Descending Houston Center
12:50PM 30.2519 -95.8669 174° South 265 305 8,000  Level Houston Center
12:50PM 30.2111 -95.8556 166° South 263 303 8,000 -300 Level Houston Center
12:51PM 30.1850 -95.8433 158° South 250 288 7,700 -1,080 Descending Houston Center
12:52PM 30.1475 -95.8294 162° South 245 282 6,900 -1,200 Descending Houston Center
12:52PM 30.1239 -95.8167 155° Southeast 241 277 6,500 -1,080 Descending Houston Center
12:53PM 30.0933 -95.7850 138° Southeast 242 278 5,800 -1,080 Descending Houston Center
12:53PM 30.0661 -95.7581 139° Southeast 239 275 5,300 -780 Descending Houston Center
12:54PM 30.0442 -95.7353 138° Southeast 236 272 5,000 -360 Descending Houston Center
12:54PM 30.0225 -95.7150 141° Southeast 203 234 5,000  Level Houston Center
12:55PM 30.0078 -95.6861 120° Southeast 210 242 5,000 -120 Level Houston Center
12:55PM 29.9986 -95.6600 112° Southeast 201 231 4,900 -720 Descending Houston Center
12:56PM 29.9906 -95.6125 101° East 201 231 4,300 -900 Descending Houston Center
12:56PM 29.9922 -95.5858 86° East 204 235 3,900 -1,080 Descending Houston Center
12:57PM 29.9925 -95.5208 90° East 200 230 2,800 -1,140 Descending Houston Center